Time;durP1;ratioP1;P1;durP2;ratioP2;P2;SDS_P1;SDS_P2;PMS_P1;PMS_P2;Temp;Humidity;BMP_temperature;BMP_pressure;BME280_temperature;BME280_humidity;BME280_pressure;Samples;Min_cycle;Max_cycle;Signal;HPM_P1;HPM_P2
2021/05/11 00:01:35;;;;;;;0.87;0.87;;;;;;;19.57;48.09;99707.29;;;;-52
2021/05/11 00:04:35;;;;;;;0.81;0.81;;;;;;;19.56;48.05;99728.01;;;;-52
2021/05/11 00:07:35;;;;;;;0.73;0.73;;;;;;;19.56;48.07;99724.11;;;;-52
2021/05/11 00:10:35;;;;;;;1.09;0.81;;;;;;;19.55;48.10;99704.70;;;;-52
2021/05/11 00:13:35;;;;;;;0.88;0.87;;;;;;;19.54;48.07;99696.33;;;;-52
2021/05/11 00:16:35;;;;;;;0.83;0.83;;;;;;;19.53;48.07;99680.50;;;;-52
2021/05/11 00:19:36;;;;;;;0.90;0.90;;;;;;;19.52;48.12;99666.83;;;;-53
2021/05/11 00:22:35;;;;;;;0.85;0.85;;;;;;;19.51;48.05;99669.87;;;;-53
2021/05/11 00:25:35;;;;;;;1.35;0.89;;;;;;;19.51;48.08;99663.91;;;;-53
2021/05/11 00:28:35;;;;;;;0.87;0.87;;;;;;;19.50;48.03;99663.51;;;;-52
2021/05/11 00:31:35;;;;;;;1.68;0.90;;;;;;;19.50;48.10;99664.50;;;;-53
2021/05/11 00:34:35;;;;;;;0.92;0.91;;;;;;;19.48;48.09;99670.19;;;;-53
2021/05/11 00:37:36;;;;;;;1.01;0.92;;;;;;;19.48;48.16;99674.01;;;;-53
2021/05/11 00:40:35;;;;;;;0.85;0.84;;;;;;;19.47;48.10;99660.95;;;;-52
2021/05/11 00:43:35;;;;;;;0.97;0.97;;;;;;;19.46;48.13;99650.70;;;;-52
2021/05/11 00:46:36;;;;;;;0.79;0.79;;;;;;;19.46;48.13;99651.83;;;;-52
2021/05/11 00:49:35;;;;;;;0.81;0.81;;;;;;;19.45;48.15;99657.13;;;;-52
2021/05/11 00:52:35;;;;;;;0.80;0.80;;;;;;;19.45;48.17;99665.67;;;;-52
2021/05/11 00:55:35;;;;;;;0.82;0.82;;;;;;;19.45;48.18;99670.63;;;;-52
2021/05/11 00:58:35;;;;;;;0.80;0.80;;;;;;;19.44;48.14;99676.47;;;;-52
2021/05/11 01:01:35;;;;;;;0.97;0.89;;;;;;;19.43;48.21;99677.45;;;;-52
2021/05/11 01:04:35;;;;;;;0.79;0.79;;;;;;;19.43;48.14;99671.05;;;;-52
2021/05/11 01:07:35;;;;;;;0.89;0.89;;;;;;;19.42;48.15;99657.56;;;;-52
2021/05/11 01:10:35;;;;;;;0.88;0.88;;;;;;;19.41;48.16;99660.66;;;;-52
2021/05/11 01:13:35;;;;;;;0.91;0.91;;;;;;;19.41;48.19;99667.33;;;;-52
2021/05/11 01:16:36;;;;;;;1.09;0.81;;;;;;;19.39;48.23;99664.23;;;;-52
2021/05/11 01:19:41;;;;;;;0.91;0.91;;;;;;;19.39;48.22;99659.05;;;;-52
2021/05/11 01:26:43;;;;;;;0.82;0.82;;;;;;;19.37;48.25;99667.42;;;;-52
2021/05/11 01:29:42;;;;;;;0.80;0.80;;;;;;;19.36;48.20;99668.81;;;;-52
2021/05/11 01:32:55;;;;;;;0.87;0.87;;;;;;;19.35;48.25;99662.30;;;;-52
2021/05/11 01:45:24;;;;;;;0.95;0.90;;;;;;;19.33;48.32;99641.13;;;;-52
2021/05/11 01:47:50;;;;;;;0.90;0.90;;;;;;;19.32;48.32;99646.58;;;;-52
2021/05/11 01:50:39;;;;;;;0.90;0.90;;;;;;;19.32;48.33;99641.28;;;;-53
2021/05/11 01:53:48;;;;;;;0.90;0.90;;;;;;;19.30;48.30;99635.70;;;;-52
2021/05/11 01:56:47;;;;;;;0.93;0.93;;;;;;;19.30;48.28;99634.06;;;;-52
2021/05/11 02:23:35;;;;;;;0.97;0.97;;;;;;;19.25;48.35;99597.06;;;;-57
2021/05/11 02:26:35;;;;;;;0.90;0.90;;;;;;;19.24;48.34;99616.90;;;;-56
2021/05/11 02:29:35;;;;;;;0.91;0.91;;;;;;;19.24;48.34;99623.40;;;;-56
2021/05/11 02:32:35;;;;;;;0.93;0.93;;;;;;;19.24;48.34;99627.86;;;;-56
2021/05/11 02:35:35;;;;;;;0.88;0.88;;;;;;;19.24;48.36;99635.18;;;;-57
2021/05/11 02:38:35;;;;;;;0.85;0.85;;;;;;;19.22;48.40;99626.98;;;;-56
2021/05/11 02:41:35;;;;;;;0.96;0.96;;;;;;;19.22;48.43;99627.70;;;;-56
2021/05/11 02:44:40;;;;;;;0.93;0.93;;;;;;;19.21;48.38;99633.80;;;;-56
2021/05/11 02:47:46;;;;;;;0.90;0.90;;;;;;;19.21;48.42;99630.39;;;;-56
2021/05/11 02:50:35;;;;;;;0.91;0.91;;;;;;;19.20;48.46;99623.17;;;;-56
2021/05/11 02:53:35;;;;;;;0.93;0.93;;;;;;;19.20;48.39;99625.38;;;;-53
2021/05/11 02:56:35;;;;;;;0.92;0.92;;;;;;;19.20;48.41;99622.63;;;;-52
2021/05/11 02:59:35;;;;;;;0.98;0.98;;;;;;;19.19;48.42;99621.30;;;;-52
2021/05/11 03:02:35;;;;;;;0.90;0.90;;;;;;;19.18;48.39;99615.23;;;;-52
2021/05/11 03:05:35;;;;;;;0.99;0.99;;;;;;;19.18;48.43;99613.13;;;;-52
2021/05/11 03:08:35;;;;;;;1.00;1.00;;;;;;;19.18;48.45;99608.73;;;;-52
2021/05/11 03:11:35;;;;;;;0.95;0.95;;;;;;;19.17;48.40;99604.91;;;;-53
2021/05/11 03:14:35;;;;;;;0.90;0.90;;;;;;;19.16;48.42;99604.53;;;;-52
2021/05/11 03:17:35;;;;;;;1.00;1.00;;;;;;;19.16;48.48;99606.14;;;;-53
2021/05/11 03:20:35;;;;;;;0.94;0.94;;;;;;;19.16;48.45;99611.34;;;;-58
2021/05/11 03:23:35;;;;;;;1.04;1.04;;;;;;;19.14;48.41;99606.72;;;;-58
2021/05/11 03:26:35;;;;;;;1.22;1.13;;;;;;;19.15;48.46;99605.89;;;;-58
2021/05/11 03:29:35;;;;;;;0.97;0.96;;;;;;;19.14;48.44;99598.84;;;;-58
2021/05/11 03:32:35;;;;;;;1.00;1.00;;;;;;;19.13;48.46;99595.05;;;;-57
2021/05/11 03:35:35;;;;;;;0.99;0.99;;;;;;;19.13;48.43;99590.39;;;;-59
2021/05/11 03:38:35;;;;;;;1.14;1.11;;;;;;;19.13;48.49;99594.95;;;;-58
2021/05/11 03:41:38;;;;;;;0.90;0.90;;;;;;;19.12;48.44;99594.80;;;;-59
2021/05/11 03:44:36;;;;;;;1.19;1.09;;;;;;;19.12;48.47;99595.94;;;;-59
2021/05/11 03:47:44;;;;;;;1.03;1.03;;;;;;;19.11;48.42;99591.16;;;;-58
2021/05/11 03:50:35;;;;;;;1.01;1.01;;;;;;;19.11;48.51;99580.17;;;;-58
2021/05/11 03:53:35;;;;;;;1.09;1.03;;;;;;;19.11;48.48;99558.16;;;;-58
2021/05/11 03:56:35;;;;;;;1.00;1.00;;;;;;;19.09;48.53;99537.23;;;;-58
2021/05/11 03:59:36;;;;;;;1.19;1.09;;;;;;;19.09;48.50;99520.09;;;;-58
2021/05/11 04:02:35;;;;;;;1.00;1.00;;;;;;;19.09;48.51;99508.40;;;;-52
2021/05/11 04:05:36;;;;;;;1.04;1.04;;;;;;;19.10;48.50;99526.13;;;;-53
2021/05/11 04:08:43;;;;;;;1.12;1.02;;;;;;;19.08;48.50;99540.56;;;;-52
2021/05/11 04:19:35;;;;;;;1.10;1.10;;;;;;;19.06;48.56;99558.85;;;;-52
2021/05/11 04:22:35;;;;;;;1.23;1.15;;;;;;;19.07;48.55;99557.70;;;;-52
2021/05/11 04:25:35;;;;;;;1.19;1.09;;;;;;;19.06;48.52;99553.57;;;;-52
2021/05/11 04:28:35;;;;;;;1.00;1.00;;;;;;;19.05;48.55;99551.89;;;;-52
2021/05/11 04:31:37;;;;;;;1.18;1.15;;;;;;;19.05;48.54;99563.91;;;;-52
2021/05/11 04:34:35;;;;;;;1.22;1.12;;;;;;;19.05;48.49;99574.03;;;;-52
2021/05/11 04:37:35;;;;;;;1.00;1.00;;;;;;;19.04;48.47;99581.52;;;;-58
2021/05/11 04:40:35;;;;;;;1.20;1.10;;;;;;;19.04;48.49;99581.84;;;;-58
2021/05/11 04:43:36;;;;;;;1.16;1.10;;;;;;;19.04;48.49;99570.73;;;;-58
2021/05/11 04:46:45;;;;;;;0.95;0.95;;;;;;;19.03;48.46;99549.63;;;;-59
2021/05/11 04:49:35;;;;;;;1.08;1.08;;;;;;;19.03;48.42;99541.42;;;;-58
2021/05/11 04:52:35;;;;;;;1.10;1.10;;;;;;;19.03;48.44;99545.88;;;;-58
2021/05/11 04:55:35;;;;;;;1.00;1.00;;;;;;;19.02;48.49;99571.45;;;;-58
2021/05/11 04:58:35;;;;;;;1.06;1.06;;;;;;;19.02;48.42;99576.16;;;;-58
2021/05/11 05:01:35;;;;;;;1.01;1.01;;;;;;;19.02;48.37;99586.56;;;;-58
2021/05/11 05:04:37;;;;;;;1.03;0.99;;;;;;;19.01;48.40;99589.67;;;;-58
2021/05/11 05:07:35;;;;;;;1.06;1.05;;;;;;;19.02;48.40;99589.49;;;;-58
2021/05/11 05:10:35;;;;;;;1.01;1.01;;;;;;;19.02;48.41;99591.37;;;;-57
2021/05/11 05:13:35;;;;;;;1.22;0.99;;;;;;;19.01;48.40;99586.51;;;;-58
2021/05/11 05:16:36;;;;;;;1.20;1.10;;;;;;;19.01;48.38;99586.67;;;;-52
2021/05/11 05:19:35;;;;;;;1.00;1.00;;;;;;;19.00;48.31;99583.09;;;;-52
2021/05/11 05:22:36;;;;;;;0.99;0.99;;;;;;;19.01;48.32;99564.34;;;;-52
2021/05/11 05:25:35;;;;;;;0.84;0.84;;;;;;;19.01;48.25;99545.51;;;;-52
2021/05/11 05:28:38;;;;;;;0.97;0.97;;;;;;;19.02;48.25;99538.27;;;;-52
2021/05/11 05:31:35;;;;;;;1.00;1.00;;;;;;;19.03;48.18;99546.04;;;;-52
2021/05/11 05:34:35;;;;;;;1.00;1.00;;;;;;;19.03;48.28;99552.72;;;;-52
2021/05/11 05:37:35;;;;;;;1.07;1.07;;;;;;;19.04;48.15;99567.23;;;;-51
2021/05/11 05:40:39;;;;;;;0.98;0.98;;;;;;;19.07;48.30;99579.22;;;;-52
2021/05/11 05:43:35;;;;;;;1.00;1.00;;;;;;;19.08;48.20;99565.58;;;;-52
2021/05/11 05:46:35;;;;;;;0.93;0.93;;;;;;;19.11;48.33;99554.27;;;;-56
2021/05/11 05:49:41;;;;;;;0.80;0.80;;;;;;;19.13;48.36;99568.31;;;;-56
2021/05/11 05:52:38;;;;;;;0.99;0.99;;;;;;;19.14;48.32;99583.66;;;;-52
2021/05/11 05:55:35;;;;;;;1.00;1.00;;;;;;;19.15;48.32;99570.67;;;;-53
2021/05/11 05:58:35;;;;;;;1.03;1.03;;;;;;;19.18;48.29;99573.81;;;;-58
2021/05/11 06:01:35;;;;;;;0.97;0.97;;;;;;;19.19;48.36;99577.28;;;;-58
2021/05/11 06:04:35;;;;;;;16.25;11.02;;;;;;;19.17;53.67;99583.81;;;;-52
2021/05/11 06:07:35;;;;;;;19.81;13.87;;;;;;;19.14;56.72;99591.62;;;;-52
2021/05/11 06:10:36;;;;;;;21.53;15.21;;;;;;;19.08;58.05;99610.09;;;;-51
2021/05/11 06:13:39;;;;;;;19.67;13.45;;;;;;;19.05;58.96;99625.67;;;;-54
2021/05/11 06:19:35;;;;;;;11.97;9.39;;;;;;;18.94;60.02;99606.49;;;;-56
2021/05/11 06:22:35;;;;;;;12.03;7.96;;;;;;;18.89;59.89;99607.83;;;;-53
2021/05/11 06:25:36;;;;;;;11.75;7.05;;;;;;;18.92;58.09;99595.31;;;;-53
2021/05/11 06:28:38;;;;;;;9.21;6.41;;;;;;;18.96;57.45;99593.33;;;;-52
2021/05/11 06:31:35;;;;;;;8.35;5.92;;;;;;;19.01;56.24;99603.95;;;;-52
2021/05/11 06:34:36;;;;;;;6.84;5.26;;;;;;;19.04;55.42;99606.13;;;;-53
2021/05/11 06:37:35;;;;;;;6.93;5.00;;;;;;;19.07;54.64;99596.84;;;;-52
2021/05/11 06:40:37;;;;;;;7.03;4.93;;;;;;;19.09;54.26;99594.91;;;;-54
2021/05/11 06:43:36;;;;;;;6.09;4.35;;;;;;;19.12;53.84;99588.80;;;;-54
2021/05/11 06:49:42;;;;;;;5.11;4.03;;;;;;;19.14;53.50;99547.85;;;;-52
2021/05/11 06:52:53;;;;;;;4.36;3.49;;;;;;;19.15;53.35;99546.20;;;;-52
2021/05/11 06:55:37;;;;;;;4.35;3.63;;;;;;;19.16;53.15;99553.35;;;;-52
2021/05/11 06:58:35;;;;;;;5.73;3.62;;;;;;;19.16;53.10;99539.30;;;;-51
2021/05/11 07:01:35;;;;;;;4.97;3.65;;;;;;;19.17;52.84;99526.04;;;;-51
2021/05/11 07:04:35;;;;;;;4.35;3.49;;;;;;;19.17;52.53;99519.70;;;;-52
2021/05/11 07:07:36;;;;;;;4.67;3.39;;;;;;;19.18;52.52;99529.63;;;;-52
2021/05/11 07:10:36;;;;;;;4.91;3.56;;;;;;;19.18;52.34;99526.78;;;;-52
2021/05/11 07:13:35;;;;;;;5.31;3.41;;;;;;;19.19;52.29;99516.62;;;;-54
2021/05/11 07:16:35;;;;;;;5.63;3.27;;;;;;;19.18;52.35;99510.45;;;;-50
2021/05/11 07:19:35;;;;;;;5.04;3.35;;;;;;;19.19;52.07;99509.70;;;;-51
2021/05/11 07:22:35;;;;;;;4.13;3.20;;;;;;;19.18;51.98;99506.95;;;;-51
2021/05/11 07:25:42;;;;;;;3.96;3.17;;;;;;;19.18;51.93;99504.77;;;;-52
2021/05/11 07:28:42;;;;;;;3.71;3.18;;;;;;;19.19;51.81;99517.42;;;;-52
2021/05/11 07:31:36;;;;;;;3.59;3.10;;;;;;;19.19;51.71;99516.29;;;;-52
2021/05/11 07:34:40;;;;;;;4.87;3.02;;;;;;;19.19;51.66;99517.10;;;;-54
2021/05/11 07:37:35;;;;;;;3.31;3.01;;;;;;;19.19;51.66;99514.83;;;;-52
2021/05/11 07:40:35;;;;;;;3.39;2.96;;;;;;;19.18;51.61;99510.69;;;;-53
2021/05/11 07:43:37;;;;;;;3.57;3.08;;;;;;;19.18;51.39;99500.88;;;;-53
2021/05/11 07:46:45;;;;;;;3.62;2.95;;;;;;;19.18;51.37;99501.52;;;;-53
2021/05/11 07:50:12;;;;;;;6.29;3.09;;;;;;;19.18;51.38;99499.97;;;;-53
2021/05/11 08:02:00;;;;;;;3.31;2.84;;;;;;;19.16;51.13;99495.60;;;;-53
2021/05/11 08:04:38;;;;;;;3.70;2.93;;;;;;;19.16;50.92;99497.87;;;;-51
2021/05/11 08:14:46;;;;;;;5.03;2.77;;;;;;;19.17;51.64;99482.59;;;;-58
2021/05/11 08:17:38;;;;;;;3.89;2.67;;;;;;;19.20;52.44;99481.21;;;;-52
2021/05/11 08:27:28;;;;;;;3.79;2.60;;;;;;;19.23;52.35;99466.16;;;;-46
2021/05/11 08:27:42;;;;;;;6.61;2.71;;;;;;;19.25;52.55;99454.60;;;;-58
2021/05/11 08:30:35;;;;;;;5.84;2.90;;;;;;;19.26;52.39;99473.28;;;;-52
2021/05/11 08:33:35;;;;;;;6.35;2.81;;;;;;;19.27;52.38;99477.80;;;;-50
2021/05/11 08:36:35;;;;;;;4.71;2.61;;;;;;;19.28;52.14;99481.30;;;;-53
2021/05/11 08:39:35;;;;;;;4.03;2.58;;;;;;;19.29;52.13;99478.84;;;;-57
2021/05/11 08:42:35;;;;;;;6.27;2.67;;;;;;;19.30;52.24;99488.82;;;;-57
2021/05/11 08:45:35;;;;;;;3.76;2.67;;;;;;;19.31;52.07;99494.17;;;;-57
2021/05/11 08:48:35;;;;;;;4.41;2.70;;;;;;;19.32;52.09;99487.52;;;;-52
2021/05/11 08:51:40;;;;;;;4.05;2.58;;;;;;;19.32;52.16;99459.91;;;;-51
2021/05/11 08:54:46;;;;;;;2.99;2.61;;;;;;;19.33;52.17;99457.28;;;;-51
2021/05/11 09:15:22;;;;;;;4.16;2.37;;;;;;;19.38;52.22;99520.87;;;;-48
2021/05/11 09:23:34;;;;;;;3.01;2.42;;;;;;;19.40;51.98;99518.73;;;;-46
2021/05/11 09:26:41;;;;;;;3.04;2.44;;;;;;;19.43;51.91;99510.19;;;;-50
2021/05/11 09:29:43;;;;;;;3.75;2.35;;;;;;;19.41;51.77;99509.46;;;;-49
2021/05/11 09:32:47;;;;;;;6.12;2.43;;;;;;;19.40;51.69;99514.19;;;;-49
2021/05/11 09:50:53;;;;;;;2.83;2.11;;;;;;;19.42;51.90;99531.62;;;;-52
2021/05/11 09:52:21;;;;;;;4.33;2.36;;;;;;;19.45;51.93;99524.21;;;;-49
2021/05/11 09:54:41;;;;;;;3.72;2.15;;;;;;;19.47;51.82;99530.70;;;;-56
2021/05/11 09:57:48;;;;;;;3.57;2.06;;;;;;;19.50;51.79;99540.48;;;;-58
2021/05/11 10:01:26;;;;;;;3.85;2.11;;;;;;;19.55;51.88;99533.47;;;;-51
2021/05/11 10:12:39;;;;;;;3.07;1.95;;;;;;;19.66;51.26;99517.20;;;;-50
2021/05/11 10:27:03;;;;;;;2.13;1.90;;;;;;;19.67;51.06;99525.56;;;;-54
2021/05/11 10:36:26;;;;;;;3.98;1.95;;;;;;;19.83;51.04;99522.66;;;;-52
2021/05/11 10:39:48;;;;;;;2.59;1.89;;;;;;;19.88;50.68;99515.72;;;;-52
2021/05/11 10:43:42;;;;;;;2.80;1.73;;;;;;;19.89;50.67;99509.67;;;;-47
2021/05/11 10:48:35;;;;;;;3.95;1.90;;;;;;;19.91;50.49;99499.42;;;;-48
2021/05/11 10:51:35;;;;;;;2.25;1.67;;;;;;;19.92;50.50;99494.75;;;;-48
2021/05/11 10:54:35;;;;;;;2.39;1.78;;;;;;;19.93;50.50;99499.23;;;;-50
2021/05/11 10:57:39;;;;;;;2.54;1.78;;;;;;;19.93;50.27;99499.46;;;;-51
2021/05/11 11:00:38;;;;;;;2.71;1.71;;;;;;;19.95;50.27;99509.78;;;;-51
2021/05/11 11:03:39;;;;;;;2.80;1.79;;;;;;;19.96;50.16;99524.88;;;;-51
2021/05/11 11:06:35;;;;;;;2.22;1.84;;;;;;;19.97;50.23;99526.59;;;;-52
2021/05/11 11:09:35;;;;;;;2.91;1.69;;;;;;;19.98;50.07;99530.63;;;;-51
2021/05/11 11:12:36;;;;;;;2.08;1.78;;;;;;;19.99;50.08;99520.80;;;;-51
2021/05/11 11:15:35;;;;;;;1.95;1.60;;;;;;;19.99;49.96;99521.34;;;;-47
2021/05/11 11:18:35;;;;;;;2.77;1.74;;;;;;;20.01;49.93;99528.42;;;;-52
2021/05/11 11:21:46;;;;;;;1.98;1.70;;;;;;;20.02;49.85;99539.20;;;;-51
2021/05/11 11:24:37;;;;;;;1.64;1.54;;;;;;;20.04;49.97;99543.16;;;;-52
2021/05/11 11:27:35;;;;;;;2.54;1.65;;;;;;;20.04;49.87;99539.42;;;;-51
2021/05/11 11:30:35;;;;;;;3.72;1.60;;;;;;;20.05;49.94;99533.74;;;;-52
2021/05/11 11:33:35;;;;;;;1.76;1.66;;;;;;;20.06;49.83;99526.33;;;;-51
2021/05/11 11:36:35;;;;;;;1.77;1.52;;;;;;;20.06;49.80;99539.82;;;;-47
2021/05/11 11:39:35;;;;;;;2.11;1.54;;;;;;;20.06;49.81;99542.98;;;;-47
2021/05/11 11:42:37;;;;;;;2.16;1.68;;;;;;;20.08;49.71;99540.62;;;;-47
2021/05/11 11:45:35;;;;;;;2.31;1.62;;;;;;;20.09;49.78;99529.95;;;;-47
2021/05/11 11:48:35;;;;;;;1.76;1.65;;;;;;;20.09;49.66;99530.70;;;;-46
2021/05/11 11:51:36;;;;;;;1.59;1.47;;;;;;;20.09;49.64;99540.62;;;;-47
2021/05/11 11:54:40;;;;;;;4.16;1.73;;;;;;;20.10;49.91;99547.02;;;;-48
2021/05/11 11:57:53;;;;;;;4.27;1.87;;;;;;;20.10;50.66;99554.08;;;;-50
2021/05/11 12:00:35;;;;;;;2.61;1.67;;;;;;;20.14;50.91;99569.33;;;;-48
2021/05/11 12:03:35;;;;;;;3.33;1.91;;;;;;;20.15;51.11;99584.23;;;;-49
2021/05/11 12:06:37;;;;;;;9.64;1.84;;;;;;;20.19;51.71;99596.61;;;;-48
2021/05/11 12:09:35;;;;;;;3.87;1.75;;;;;;;20.22;51.80;99605.46;;;;-48
2021/05/11 12:12:35;;;;;;;4.73;1.69;;;;;;;20.22;51.57;99610.17;;;;-50
2021/05/11 12:15:35;;;;;;;5.17;1.94;;;;;;;20.22;51.39;99612.61;;;;-46
2021/05/11 12:18:35;;;;;;;5.57;1.70;;;;;;;20.26;51.48;99612.74;;;;-60
2021/05/11 12:21:35;;;;;;;2.47;1.70;;;;;;;20.28;51.20;99618.25;;;;-58
2021/05/11 12:24:35;;;;;;;4.44;1.76;;;;;;;20.29;51.26;99618.14;;;;-55
2021/05/11 12:27:35;;;;;;;5.88;1.87;;;;;;;20.30;51.21;99605.47;;;;-50
2021/05/11 12:30:39;;;;;;;2.87;1.58;;;;;;;20.31;50.92;99604.54;;;;-58
2021/05/11 12:33:35;;;;;;;3.63;1.71;;;;;;;20.32;50.82;99605.59;;;;-55
2021/05/11 12:36:35;;;;;;;4.15;1.72;;;;;;;20.31;50.72;99594.69;;;;-57
2021/05/11 12:39:38;;;;;;;4.69;1.70;;;;;;;20.33;50.63;99594.77;;;;-56
2021/05/11 12:42:35;;;;;;;2.47;1.70;;;;;;;20.32;50.51;99598.44;;;;-57
2021/05/11 12:45:39;;;;;;;3.65;1.61;;;;;;;20.32;50.29;99592.83;;;;-57
2021/05/11 12:48:35;;;;;;;1.52;1.42;;;;;;;20.32;50.31;99586.16;;;;-57
2021/05/11 12:51:37;;;;;;;3.26;1.56;;;;;;;20.33;50.20;99582.40;;;;-58
2021/05/11 12:54:36;;;;;;;4.49;1.63;;;;;;;20.32;49.93;99580.86;;;;-57
2021/05/11 12:57:40;;;;;;;1.59;1.41;;;;;;;20.32;49.95;99583.64;;;;-57
2021/05/11 13:00:43;;;;;;;1.99;1.50;;;;;;;20.32;49.98;99583.64;;;;-54
2021/05/11 13:03:46;;;;;;;2.49;1.56;;;;;;;20.32;49.96;99588.34;;;;-55
2021/05/11 13:15:08;;;;;;;2.79;1.60;;;;;;;20.33;49.71;99592.33;;;;-54
2021/05/11 13:19:48;;;;;;;2.43;1.59;;;;;;;20.33;49.72;99581.34;;;;-57
2021/05/11 13:25:36;;;;;;;2.08;1.35;;;;;;;20.34;49.63;99581.73;;;;-54
2021/05/11 13:28:41;;;;;;;2.47;1.42;;;;;;;20.34;49.51;99575.73;;;;-54
2021/05/11 13:31:39;;;;;;;1.60;1.50;;;;;;;20.34;49.53;99568.73;;;;-55
2021/05/11 13:34:35;;;;;;;2.05;1.48;;;;;;;20.35;50.01;99564.46;;;;-56
2021/05/11 13:37:35;;;;;;;1.99;1.44;;;;;;;20.37;50.36;99562.56;;;;-54
2021/05/11 13:40:35;;;;;;;2.87;1.60;;;;;;;20.39;50.47;99561.00;;;;-50
2021/05/11 13:43:35;;;;;;;2.35;1.50;;;;;;;20.41;50.57;99559.59;;;;-53
2021/05/11 13:46:35;;;;;;;1.76;1.49;;;;;;;20.43;50.68;99557.47;;;;-56
2021/05/11 13:49:35;;;;;;;1.94;1.60;;;;;;;20.43;50.17;99555.91;;;;-56
2021/05/11 13:52:35;;;;;;;2.89;1.44;;;;;;;20.43;50.08;99565.27;;;;-51
2021/05/11 13:55:42;;;;;;;2.52;1.49;;;;;;;20.43;49.95;99573.97;;;;-51
2021/05/11 14:03:35;;;;;;;2.27;1.40;;;;;;;20.43;49.67;99595.88;;;;-55
2021/05/11 14:06:35;;;;;;;2.82;1.51;;;;;;;20.43;49.59;99594.15;;;;-57
2021/05/11 14:09:35;;;;;;;1.77;1.39;;;;;;;20.43;49.54;99592.28;;;;-56
2021/05/11 14:12:35;;;;;;;1.96;1.55;;;;;;;20.43;49.60;99602.54;;;;-52
2021/05/11 14:15:36;;;;;;;1.83;1.51;;;;;;;20.44;49.49;99615.71;;;;-50
2021/05/11 14:18:35;;;;;;;5.01;1.80;;;;;;;20.41;50.22;99610.54;;;;-49
2021/05/11 14:21:35;;;;;;;3.29;1.89;;;;;;;20.43;50.66;99605.22;;;;-57
2021/05/11 14:24:35;;;;;;;3.35;1.70;;;;;;;20.45;50.78;99603.49;;;;-57
2021/05/11 14:27:35;;;;;;;3.11;1.58;;;;;;;20.47;50.90;99607.29;;;;-57
2021/05/11 14:30:35;;;;;;;3.31;1.71;;;;;;;20.48;50.86;99611.84;;;;-58
2021/05/11 14:33:35;;;;;;;2.43;1.70;;;;;;;20.51;50.85;99621.66;;;;-53
2021/05/11 14:36:35;;;;;;;3.32;1.73;;;;;;;20.53;51.00;99629.13;;;;-59
2021/05/11 14:39:35;;;;;;;2.97;1.71;;;;;;;20.55;50.84;99639.20;;;;-59
2021/05/11 14:42:35;;;;;;;1.69;1.49;;;;;;;20.55;50.78;99641.30;;;;-58
2021/05/11 14:45:35;;;;;;;2.40;1.52;;;;;;;20.57;50.68;99644.30;;;;-55
2021/05/11 14:48:35;;;;;;;2.03;1.57;;;;;;;20.59;50.78;99647.56;;;;-59
2021/05/11 14:51:35;;;;;;;1.70;1.60;;;;;;;20.59;50.49;99650.82;;;;-60
2021/05/11 14:54:35;;;;;;;1.89;1.49;;;;;;;20.61;50.67;99649.89;;;;-60
2021/05/11 14:57:35;;;;;;;2.13;1.55;;;;;;;20.62;50.58;99644.52;;;;-54
2021/05/11 15:00:35;;;;;;;2.73;1.53;;;;;;;20.63;50.51;99648.09;;;;-49
2021/05/11 15:03:35;;;;;;;5.29;1.66;;;;;;;20.61;50.38;99639.64;;;;-52
2021/05/11 15:06:35;;;;;;;2.62;1.71;;;;;;;20.56;50.80;99631.29;;;;-49
2021/05/11 15:09:35;;;;;;;3.53;1.81;;;;;;;20.53;50.95;99631.56;;;;-47
2021/05/11 15:12:35;;;;;;;2.34;1.55;;;;;;;20.52;51.06;99635.97;;;;-54
2021/05/11 15:15:36;;;;;;;3.67;1.82;;;;;;;20.51;51.21;99635.67;;;;-51
2021/05/11 15:18:35;;;;;;;2.42;1.70;;;;;;;20.49;51.21;99635.91;;;;-51
2021/05/11 15:21:35;;;;;;;3.79;1.73;;;;;;;20.53;51.17;99637.76;;;;-50
2021/05/11 15:24:35;;;;;;;4.65;1.72;;;;;;;20.55;51.22;99640.33;;;;-57
2021/05/11 15:27:36;;;;;;;4.06;1.95;;;;;;;20.58;50.83;99644.22;;;;-53
2021/05/11 15:30:35;;;;;;;6.61;1.56;;;;;;;20.59;50.63;99646.35;;;;-53
2021/05/11 15:33:35;;;;;;;2.75;1.67;;;;;;;20.60;50.51;99653.73;;;;-50
2021/05/11 15:36:35;;;;;;;2.93;1.59;;;;;;;20.60;50.31;99644.95;;;;-50
2021/05/11 15:39:35;;;;;;;3.02;1.69;;;;;;;20.59;50.22;99635.84;;;;-53
2021/05/11 15:42:35;;;;;;;3.23;1.55;;;;;;;20.60;50.12;99631.92;;;;-50
2021/05/11 15:45:35;;;;;;;2.12;1.51;;;;;;;20.61;49.99;99620.59;;;;-50
2021/05/11 15:48:36;;;;;;;4.08;1.56;;;;;;;20.60;49.86;99621.99;;;;-50
2021/05/11 15:51:35;;;;;;;2.79;1.61;;;;;;;20.59;49.90;99618.66;;;;-50
2021/05/11 15:54:35;;;;;;;2.23;1.61;;;;;;;20.60;49.83;99624.77;;;;-53
2021/05/11 15:57:35;;;;;;;2.87;1.52;;;;;;;20.59;49.78;99626.41;;;;-54
2021/05/11 16:00:35;;;;;;;2.63;1.55;;;;;;;20.60;49.77;99628.49;;;;-53
2021/05/11 16:03:35;;;;;;;2.32;1.41;;;;;;;20.59;49.71;99632.98;;;;-53
2021/05/11 16:06:35;;;;;;;1.81;1.64;;;;;;;20.59;49.65;99635.19;;;;-53
2021/05/11 16:09:35;;;;;;;1.76;1.45;;;;;;;20.60;49.60;99641.28;;;;-52
2021/05/11 16:12:35;;;;;;;2.14;1.51;;;;;;;20.61;49.55;99644.36;;;;-50
2021/05/11 16:15:35;;;;;;;1.75;1.41;;;;;;;20.61;49.51;99645.61;;;;-50
2021/05/11 16:18:36;;;;;;;1.90;1.41;;;;;;;20.60;49.45;99648.12;;;;-52
2021/05/11 16:21:35;;;;;;;2.05;1.41;;;;;;;20.59;49.41;99649.69;;;;-50
2021/05/11 16:24:35;;;;;;;1.57;1.42;;;;;;;20.60;49.46;99649.83;;;;-50
2021/05/11 16:27:35;;;;;;;1.65;1.43;;;;;;;20.60;49.44;99649.98;;;;-53
2021/05/11 16:30:36;;;;;;;2.44;1.39;;;;;;;20.60;49.38;99650.65;;;;-50
2021/05/11 16:33:36;;;;;;;1.61;1.33;;;;;;;20.59;49.37;99651.71;;;;-50
2021/05/11 16:36:35;;;;;;;1.64;1.39;;;;;;;20.59;49.29;99660.34;;;;-54
2021/05/11 16:39:35;;;;;;;2.39;1.37;;;;;;;20.59;49.33;99662.47;;;;-49
2021/05/11 16:42:35;;;;;;;1.45;1.35;;;;;;;20.58;49.27;99667.50;;;;-50
2021/05/11 16:45:36;;;;;;;2.09;1.44;;;;;;;20.59;49.29;99672.71;;;;-52
2021/05/11 16:48:35;;;;;;;1.58;1.40;;;;;;;20.59;49.27;99673.13;;;;-50
2021/05/11 16:51:35;;;;;;;2.87;1.21;;;;;;;20.59;49.29;99675.16;;;;-49
2021/05/11 16:54:35;;;;;;;1.61;1.45;;;;;;;20.60;49.23;99679.05;;;;-50
2021/05/11 16:57:35;;;;;;;1.39;1.29;;;;;;;20.59;49.19;99689.97;;;;-49
2021/05/11 17:00:35;;;;;;;1.76;1.39;;;;;;;20.59;49.18;99693.66;;;;-49
2021/05/11 17:03:35;;;;;;;1.75;1.33;;;;;;;20.59;49.17;99701.29;;;;-50
2021/05/11 17:06:35;;;;;;;1.43;1.33;;;;;;;20.59;49.19;99697.23;;;;-54
2021/05/11 17:09:35;;;;;;;1.70;1.30;;;;;;;20.60;49.15;99697.86;;;;-49
2021/05/11 17:12:35;;;;;;;1.40;1.30;;;;;;;20.59;49.16;99697.88;;;;-49
2021/05/11 17:15:35;;;;;;;1.26;1.20;;;;;;;20.59;49.05;99700.55;;;;-49
2021/05/11 17:18:35;;;;;;;1.36;1.22;;;;;;;20.60;49.08;99705.59;;;;-50
2021/05/11 17:21:35;;;;;;;1.40;1.30;;;;;;;20.60;49.12;99705.09;;;;-50
2021/05/11 17:24:35;;;;;;;1.51;1.29;;;;;;;20.59;49.11;99709.77;;;;-50
2021/05/11 17:27:35;;;;;;;1.39;1.29;;;;;;;20.59;49.02;99711.95;;;;-50
2021/05/11 17:30:38;;;;;;;1.40;1.30;;;;;;;20.60;49.02;99715.44;;;;-50
2021/05/11 17:33:35;;;;;;;1.85;1.41;;;;;;;20.61;49.04;99716.16;;;;-53
2021/05/11 17:36:35;;;;;;;1.31;1.21;;;;;;;20.59;49.10;99717.81;;;;-49
2021/05/11 17:39:35;;;;;;;1.42;1.32;;;;;;;20.59;49.04;99717.50;;;;-53
2021/05/11 17:42:35;;;;;;;1.49;1.38;;;;;;;20.59;49.06;99722.12;;;;-49
2021/05/11 17:45:35;;;;;;;1.67;1.22;;;;;;;20.60;49.01;99723.75;;;;-54
2021/05/11 17:48:38;;;;;;;1.35;1.25;;;;;;;20.59;49.00;99726.11;;;;-50
2021/05/11 17:51:35;;;;;;;2.26;1.43;;;;;;;20.58;49.24;99724.97;;;;-47
2021/05/11 17:54:35;;;;;;;1.52;1.37;;;;;;;20.60;49.97;99720.97;;;;-51
2021/05/11 17:57:35;;;;;;;1.97;1.39;;;;;;;20.63;50.25;99726.83;;;;-51
2021/05/11 18:00:35;;;;;;;1.87;1.34;;;;;;;20.64;50.17;99729.23;;;;-51
2021/05/11 18:03:35;;;;;;;1.66;1.30;;;;;;;20.65;50.13;99730.30;;;;-53
2021/05/11 18:06:35;;;;;;;2.31;1.30;;;;;;;20.66;49.77;99733.77;;;;-53
2021/05/11 18:09:37;;;;;;;2.41;1.35;;;;;;;20.66;49.58;99727.34;;;;-54
2021/05/11 18:12:35;;;;;;;1.75;1.16;;;;;;;20.65;49.49;99728.58;;;;-54
2021/05/11 18:15:35;;;;;;;1.28;1.08;;;;;;;20.65;49.37;99728.67;;;;-54
2021/05/11 18:18:35;;;;;;;1.67;1.40;;;;;;;20.65;49.29;99734.34;;;;-54
2021/05/11 18:21:35;;;;;;;1.94;1.30;;;;;;;20.65;49.25;99737.28;;;;-54
2021/05/11 18:24:35;;;;;;;1.38;1.14;;;;;;;20.64;49.28;99740.39;;;;-52
2021/05/11 18:27:36;;;;;;;1.71;1.20;;;;;;;20.64;49.24;99741.94;;;;-53
2021/05/11 18:30:35;;;;;;;1.25;1.10;;;;;;;20.64;49.21;99745.20;;;;-53
2021/05/11 18:33:36;;;;;;;1.73;1.21;;;;;;;20.64;49.19;99745.03;;;;-53
2021/05/11 18:36:43;;;;;;;1.67;1.27;;;;;;;20.64;49.20;99749.67;;;;-53
2021/05/11 18:39:37;;;;;;;1.81;1.20;;;;;;;20.64;49.11;99749.92;;;;-52
2021/05/11 18:42:35;;;;;;;1.38;1.28;;;;;;;20.63;49.09;99748.30;;;;-52
2021/05/11 18:45:35;;;;;;;1.69;1.19;;;;;;;20.64;49.09;99746.91;;;;-51
2021/05/11 18:48:35;;;;;;;1.95;1.30;;;;;;;20.64;49.08;99754.47;;;;-53
2021/05/11 18:51:35;;;;;;;1.67;1.20;;;;;;;20.64;49.00;99755.93;;;;-53
2021/05/11 18:54:35;;;;;;;1.24;1.14;;;;;;;20.64;49.00;99758.63;;;;-52
2021/05/11 18:57:35;;;;;;;1.23;1.11;;;;;;;20.64;49.57;99766.28;;;;-53
2021/05/11 19:00:35;;;;;;;1.52;1.19;;;;;;;20.66;50.27;99767.90;;;;-51
2021/05/11 19:03:35;;;;;;;1.89;1.21;;;;;;;20.68;50.12;99775.59;;;;-50
2021/05/11 19:06:35;;;;;;;1.45;1.21;;;;;;;20.68;49.69;99781.22;;;;-50
2021/05/11 19:09:35;;;;;;;1.87;1.20;;;;;;;20.68;49.61;99781.30;;;;-50
2021/05/11 19:12:35;;;;;;;2.37;1.19;;;;;;;20.68;49.42;99781.80;;;;-50
2021/05/11 19:15:35;;;;;;;1.37;1.22;;;;;;;20.67;49.41;99791.99;;;;-50
2021/05/11 19:18:35;;;;;;;1.75;1.12;;;;;;;20.67;49.47;99790.11;;;;-54
2021/05/11 19:21:35;;;;;;;3.37;1.21;;;;;;;20.67;49.92;99790.94;;;;-52
2021/05/11 19:24:36;;;;;;;1.53;1.25;;;;;;;20.66;50.13;99789.39;;;;-51
2021/05/11 19:27:38;;;;;;;4.34;1.23;;;;;;;20.65;50.26;99790.94;;;;-60
2021/05/11 19:30:35;;;;;;;2.58;1.39;;;;;;;20.65;50.54;99791.28;;;;-51